Time;durP1;ratioP1;P1;durP2;ratioP2;P2;SDS_P1;SDS_P2;PMS_P1;PMS_P2;Temp;Humidity;BMP_temperature;BMP_pressure;BME280_temperature;BME280_humidity;BME280_pressure;Samples;Min_cycle;Max_cycle;Signal;HPM_P1;HPM_P2
2021/05/16 00:01:19;;;;;;;8.95;8.10;;;;;;;15.02;67.41;99313.66;1657955;85;21049;-74
2021/05/16 00:03:48;;;;;;;9.58;8.60;;;;;;;15.02;67.65;99319.61;1655960;85;21033;-70
2021/05/16 00:06:14;;;;;;;9.60;8.63;;;;;;;15.02;67.95;99316.91;1662884;85;21023;-70
2021/05/16 00:08:43;;;;;;;9.63;8.63;;;;;;;15.00;67.96;99317.77;1685047;85;20990;-70
2021/05/16 00:11:09;;;;;;;10.75;9.15;;;;;;;14.98;68.19;99319.94;1655935;85;21081;-69
2021/05/16 00:13:37;;;;;;;15.95;10.78;;;;;;;14.97;68.31;99318.31;1682026;85;21097;-71
2021/05/16 00:16:04;;;;;;;17.15;12.65;;;;;;;14.95;68.30;99319.17;1677732;85;20975;-69
2021/05/16 00:18:32;;;;;;;13.60;12.30;;;;;;;14.92;68.16;99321.08;1664264;84;22664;-69
2021/05/16 00:20:58;;;;;;;13.18;11.85;;;;;;;14.88;68.21;99322.75;1659410;85;21054;-74
2021/05/16 00:23:24;;;;;;;17.25;13.00;;;;;;;14.86;68.30;99323.60;1686390;84;21057;-73
2021/05/16 00:25:53;;;;;;;13.80;12.37;;;;;;;14.84;68.48;99321.17;1678239;84;21693;-69
2021/05/16 00:28:19;;;;;;;12.45;11.33;;;;;;;14.86;68.55;99327.12;1683401;84;21047;-71
2021/05/16 00:30:45;;;;;;;12.05;10.75;;;;;;;14.89;68.84;99317.06;1672883;85;21186;-70
2021/05/16 00:33:12;;;;;;;11.93;10.68;;;;;;;14.95;68.98;99313.75;1662436;84;20965;-70
2021/05/16 00:35:38;;;;;;;15.20;11.38;;;;;;;15.04;68.91;99318.80;1684200;85;21037;-71
2021/05/16 00:38:05;;;;;;;11.57;10.40;;;;;;;15.10;68.66;99312.23;1684640;85;20986;-71
2021/05/16 00:40:33;;;;;;;11.65;10.48;;;;;;;15.15;68.35;99314.34;1673032;84;21639;-70
2021/05/16 00:42:59;;;;;;;15.78;11.70;;;;;;;15.18;68.16;99319.17;1675582;85;20958;-70
2021/05/16 00:45:28;;;;;;;13.00;10.13;;;;;;;15.16;68.14;99311.87;1678427;84;21033;-72
2021/05/16 00:48:00;;;;;;;11.97;9.00;;;;;;;15.17;68.37;99311.32;1657453;85;22582;-70
2021/05/16 00:50:38;;;;;;;10.13;9.18;;;;;;;15.17;68.44;99316.74;1652548;85;21081;-71
2021/05/16 00:53:05;;;;;;;9.30;8.40;;;;;;;15.10;68.06;99310.88;1663901;85;21085;-73
2021/05/16 00:55:32;;;;;;;13.98;8.58;;;;;;;15.06;68.34;99313.34;1659653;85;21085;-69
2021/05/16 00:57:59;;;;;;;10.20;9.15;;;;;;;15.06;68.55;99313.91;1665167;84;21060;-69
2021/05/16 01:00:31;;;;;;;8.88;7.62;;;;;;;15.05;68.59;99320.41;1667299;84;21629;-71
2021/05/16 01:02:59;;;;;;;12.07;10.88;;;;;;;15.01;69.32;99317.45;1672673;85;21072;-70
2021/05/16 01:05:27;;;;;;;11.97;10.72;;;;;;;15.00;69.55;99324.53;1660994;85;21041;-70
2021/05/16 01:07:53;;;;;;;11.70;9.98;;;;;;;14.97;70.22;99319.67;1676468;85;20970;-68
2021/05/16 01:10:20;;;;;;;15.05;13.15;;;;;;;14.98;70.55;99325.35;1670208;85;21046;-69
2021/05/16 01:12:50;;;;;;;17.85;11.80;;;;;;;15.00;70.83;99323.98;1672889;85;21034;-72
2021/05/16 01:15:19;;;;;;;14.83;11.63;;;;;;;15.04;71.26;99318.80;1662451;85;21093;-70
2021/05/16 01:17:46;;;;;;;17.32;11.90;;;;;;;15.09;71.28;99324.97;1670951;85;21123;-68
2021/05/16 01:20:16;;;;;;;12.78;11.10;;;;;;;15.11;71.20;99318.70;1671784;85;21121;-68
2021/05/16 01:22:54;;;;;;;12.88;9.13;;;;;;;15.14;71.41;99322.75;1681053;85;21611;-69
2021/05/16 01:25:21;;;;;;;11.63;10.35;;;;;;;15.11;71.06;99320.05;1661020;84;21092;-68
2021/05/16 01:27:48;;;;;;;12.00;10.72;;;;;;;15.02;70.11;99323.13;1671230;85;21113;-69
2021/05/16 01:30:16;;;;;;;10.30;9.25;;;;;;;14.95;71.07;99324.05;1682862;85;21827;-69
2021/05/16 01:32:42;;;;;;;13.50;10.13;;;;;;;14.94;71.64;99328.38;1667956;85;21017;-69
2021/05/16 01:35:10;;;;;;;12.15;9.88;;;;;;;14.93;71.92;99330.28;1673310;85;21612;-68
2021/05/16 01:37:37;;;;;;;10.90;9.50;;;;;;;14.95;72.19;99332.16;1680645;84;21105;-68
2021/05/16 01:40:06;;;;;;;12.28;9.35;;;;;;;15.00;72.39;99331.30;1672373;85;21636;-68
2021/05/16 01:42:32;;;;;;;10.63;9.53;;;;;;;15.03;72.49;99329.36;1670399;85;21006;-71
2021/05/16 01:45:03;;;;;;;11.28;10.05;;;;;;;15.08;72.44;99338.25;1671642;85;21029;-72
2021/05/16 01:47:30;;;;;;;11.68;10.18;;;;;;;15.14;72.20;99347.94;1671063;85;21048;-67
2021/05/16 01:50:07;;;;;;;14.10;9.58;;;;;;;15.17;71.92;99344.64;1680499;85;21097;-68
2021/05/16 01:52:35;;;;;;;10.08;9.15;;;;;;;15.15;71.77;99346.84;1670856;84;20985;-70
2021/05/16 01:55:05;;;;;;;11.78;10.13;;;;;;;15.11;71.78;99347.14;1676669;85;21045;-68
2021/05/16 01:57:32;;;;;;;11.48;10.32;;;;;;;15.08;71.73;99350.44;1672467;85;20986;-70
2021/05/16 01:59:59;;;;;;;11.40;10.25;;;;;;;15.00;71.59;99344.84;1671415;85;21550;-70
2021/05/16 02:02:26;;;;;;;12.55;11.08;;;;;;;14.95;71.57;99351.13;1672272;85;21057;-69
2021/05/16 02:04:52;;;;;;;11.00;10.00;;;;;;;14.86;71.28;99346.61;1671595;85;21025;-69
2021/05/16 02:07:20;;;;;;;13.08;11.15;;;;;;;14.80;70.87;99343.15;1641679;85;21553;-68
2021/05/16 02:09:47;;;;;;;14.58;11.03;;;;;;;14.61;69.85;99342.24;1679579;85;21025;-68
2021/05/16 02:12:17;;;;;;;12.80;11.50;;;;;;;14.45;70.08;99353.73;1673348;85;21681;-69
2021/05/16 02:14:45;;;;;;;12.73;10.45;;;;;;;14.35;70.30;99353.78;1670707;84;21160;-71
2021/05/16 02:17:13;;;;;;;10.95;9.93;;;;;;;14.31;71.11;99356.80;1660934;85;21039;-70
2021/05/16 02:19:40;;;;;;;13.62;10.53;;;;;;;14.28;71.34;99358.72;1644925;85;21173;-69
2021/05/16 02:22:08;;;;;;;13.03;10.65;;;;;;;14.10;70.74;99362.11;1670259;85;21589;-69
2021/05/16 02:24:36;;;;;;;12.00;10.68;;;;;;;13.90;70.98;99358.44;1673555;85;21083;-67
2021/05/16 02:27:05;;;;;;;14.15;11.65;;;;;;;13.70;71.45;99364.49;1660666;85;21030;-69
2021/05/16 02:29:33;;;;;;;13.98;12.43;;;;;;;13.67;72.48;99362.36;1638348;85;21559;-66
2021/05/16 02:32:00;;;;;;;41.53;34.35;;;;;;;13.70;73.39;99354.50;1679721;85;21220;-67
2021/05/16 02:34:27;;;;;;;11.50;10.40;;;;;;;13.69;72.81;99362.33;1675036;85;21053;-68
2021/05/16 02:36:54;;;;;;;16.50;9.83;;;;;;;13.57;72.79;99368.62;1686858;84;21270;-69
2021/05/16 02:39:21;;;;;;;10.32;9.00;;;;;;;13.47;73.06;99376.23;1665469;84;20978;-66
2021/05/16 02:41:48;;;;;;;9.48;8.55;;;;;;;13.37;73.38;99377.61;1665328;85;21584;-69
2021/05/16 02:44:15;;;;;;;11.55;9.10;;;;;;;13.20;73.90;99374.94;1687079;85;21683;-69
2021/05/16 02:46:43;;;;;;;11.90;9.28;;;;;;;13.07;74.51;99372.25;1664942;85;20969;-71
2021/05/16 02:49:10;;;;;;;11.30;8.93;;;;;;;13.02;74.81;99377.13;1653515;85;20981;-68
2021/05/16 02:51:37;;;;;;;15.68;10.10;;;;;;;12.94;75.15;99366.89;1672633;85;21592;-68
2021/05/16 02:54:06;;;;;;;11.83;10.72;;;;;;;12.89;75.48;99370.14;1661391;85;21101;-70
2021/05/16 02:56:33;;;;;;;20.27;12.15;;;;;;;12.91;75.79;99374.70;1662178;85;21113;-68
2021/05/16 02:59:00;;;;;;;18.35;9.93;;;;;;;12.94;75.86;99372.30;1681479;84;21104;-69
2021/05/16 03:01:26;;;;;;;13.95;10.75;;;;;;;12.97;75.95;99369.58;1657722;85;21014;-68
2021/05/16 03:03:53;;;;;;;16.90;10.90;;;;;;;13.01;76.12;99376.86;1647189;86;21069;-68
2021/05/16 03:06:20;;;;;;;10.90;9.88;;;;;;;13.05;76.19;99377.92;1646218;85;20989;-70
2021/05/16 03:08:49;;;;;;;15.85;11.38;;;;;;;13.15;76.29;99377.12;1674884;85;21579;-67
2021/05/16 03:11:18;;;;;;;13.62;11.53;;;;;;;13.24;76.07;99376.81;1669917;85;21013;-68
2021/05/16 03:13:46;;;;;;;18.42;11.95;;;;;;;13.30;75.84;99384.37;1676175;84;21601;-69
2021/05/16 03:16:15;;;;;;;17.50;13.88;;;;;;;13.32;75.70;99388.97;1659984;85;21057;-68
2021/05/16 03:18:42;;;;;;;15.98;10.60;;;;;;;13.30;75.84;99385.72;1648389;85;21556;-69
2021/05/16 03:21:08;;;;;;;13.58;11.28;;;;;;;13.29;75.73;99386.25;1665158;85;21034;-69
2021/05/16 03:23:35;;;;;;;15.45;13.53;;;;;;;13.26;75.82;99393.57;1650133;85;21050;-68
2021/05/16 03:26:02;;;;;;;19.45;14.55;;;;;;;13.26;76.98;99385.47;1645954;85;21092;-69
2021/05/16 03:28:29;;;;;;;17.15;15.15;;;;;;;13.33;77.80;99382.48;1643342;86;20994;-69
2021/05/16 03:30:56;;;;;;;14.45;13.13;;;;;;;13.46;78.31;99387.30;1658464;85;21054;-67
2021/05/16 03:33:23;;;;;;;14.75;12.75;;;;;;;13.62;78.25;99394.80;1636151;86;21082;-69
2021/05/16 03:35:50;;;;;;;14.25;12.37;;;;;;;13.70;77.31;99389.63;1647473;86;21061;-69
2021/05/16 03:38:16;;;;;;;15.80;14.23;;;;;;;13.76;76.92;99389.88;1655722;85;20982;-69
2021/05/16 03:40:42;;;;;;;17.70;14.18;;;;;;;13.86;76.93;99397.91;1666912;85;21614;-68
2021/05/16 03:43:09;;;;;;;20.72;14.13;;;;;;;13.94;77.07;99400.59;1620665;87;21134;-69
2021/05/16 03:45:36;;;;;;;16.48;14.78;;;;;;;14.02;77.00;99407.30;1624616;87;21060;-68
2021/05/16 03:48:05;;;;;;;16.27;13.72;;;;;;;14.07;76.79;99409.44;1631416;87;21039;-67
2021/05/16 03:50:32;;;;;;;19.42;17.35;;;;;;;14.12;76.50;99414.81;1657387;85;21553;-67
2021/05/16 03:52:58;;;;;;;32.58;26.45;;;;;;;14.09;76.20;99411.33;1633156;86;21110;-69
2021/05/16 03:55:25;;;;;;;18.00;16.10;;;;;;;14.08;76.28;99414.30;1650736;85;21069;-68
2021/05/16 03:57:51;;;;;;;15.95;14.33;;;;;;;14.10;76.27;99414.84;1633375;86;55932;-68
2021/05/16 04:00:19;;;;;;;17.32;15.25;;;;;;;14.14;76.25;99423.47;1645092;86;21122;-70
2021/05/16 04:02:46;;;;;;;19.10;15.65;;;;;;;14.17;76.22;99431.02;1653448;85;21163;-68
2021/05/16 04:05:13;;;;;;;16.85;15.15;;;;;;;14.24;76.17;99426.11;1667515;85;21643;-68
2021/05/16 04:07:40;;;;;;;19.00;15.25;;;;;;;14.32;75.98;99421.45;1631616;86;21057;-67
2021/05/16 04:10:08;;;;;;;15.85;14.28;;;;;;;14.39;75.81;99417.09;1658396;86;21122;-69
2021/05/16 04:12:37;;;;;;;16.45;14.90;;;;;;;14.42;75.76;99408.44;1670668;85;21003;-68
2021/05/16 04:15:06;;;;;;;17.85;14.35;;;;;;;14.46;75.78;99416.25;1623150;87;20980;-69
2021/05/16 04:17:33;;;;;;;15.65;14.07;;;;;;;14.54;75.83;99413.47;1633388;86;20998;-68
2021/05/16 04:20:01;;;;;;;15.03;13.30;;;;;;;14.66;75.69;99412.03;1660731;85;21142;-67
2021/05/16 04:22:27;;;;;;;15.40;13.80;;;;;;;14.80;75.44;99418.41;1684690;85;21101;-68
2021/05/16 04:24:54;;;;;;;20.92;15.32;;;;;;;14.94;75.04;99421.80;1648864;86;21571;-69
2021/05/16 04:27:20;;;;;;;15.58;13.78;;;;;;;15.05;74.59;99422.80;1616953;86;21079;-70
2021/05/16 04:29:47;;;;;;;14.93;13.38;;;;;;;15.08;74.23;99428.98;1637745;85;21073;-68
2021/05/16 04:32:13;;;;;;;16.90;14.93;;;;;;;15.06;74.22;99433.09;1661262;85;21567;-68
2021/05/16 04:34:40;;;;;;;20.45;15.53;;;;;;;15.06;74.31;99424.96;1657974;85;21120;-69
2021/05/16 04:37:07;;;;;;;20.27;15.63;;;;;;;15.08;74.31;99425.47;1658951;86;20993;-67
2021/05/16 04:39:33;;;;;;;16.50;14.75;;;;;;;15.13;74.27;99430.84;1648408;86;21053;-68
2021/05/16 04:42:00;;;;;;;21.05;15.20;;;;;;;15.19;74.18;99418.86;1650843;85;21596;-68
2021/05/16 04:44:26;;;;;;;17.02;14.10;;;;;;;15.27;74.07;99418.23;1631438;87;21179;-69
2021/05/16 04:46:53;;;;;;;16.67;14.78;;;;;;;15.37;73.86;99415.95;1627059;87;21109;-68
2021/05/16 04:49:20;;;;;;;18.70;14.85;;;;;;;15.41;73.55;99423.22;1612599;87;21018;-68
2021/05/16 04:51:47;;;;;;;18.98;13.83;;;;;;;15.48;73.53;99422.34;1643099;86;21119;-69
2021/05/16 04:54:13;;;;;;;16.70;14.90;;;;;;;15.57;73.24;99413.86;1672489;85;21037;-67
2021/05/16 04:56:40;;;;;;;19.73;15.50;;;;;;;15.61;72.90;99407.31;1632700;86;21025;-71
2021/05/16 04:59:06;;;;;;;15.78;14.18;;;;;;;15.65;72.68;99407.80;1663691;85;21238;-69
2021/05/16 05:01:33;;;;;;;22.45;15.15;;;;;;;15.68;72.50;99403.71;1674206;84;20945;-69
2021/05/16 05:03:59;;;;;;;15.03;13.32;;;;;;;15.71;72.42;99400.41;1687405;84;21558;-70
2021/05/16 05:06:29;;;;;;;13.55;12.15;;;;;;;15.75;72.23;99403.34;1700655;83;21088;-68
2021/05/16 05:09:00;;;;;;;11.45;10.30;;;;;;;15.77;72.02;99399.80;1644459;86;21034;-69
2021/05/16 05:11:28;;;;;;;10.90;9.80;;;;;;;15.80;71.44;99404.08;1676330;85;21010;-69
2021/05/16 05:13:54;;;;;;;13.83;12.05;;;;;;;15.83;71.01;99398.06;1646220;86;21594;-69
2021/05/16 05:16:20;;;;;;;9.15;8.10;;;;;;;15.88;71.10;99396.64;1679304;85;20986;-70
2021/05/16 05:18:47;;;;;;;12.65;10.80;;;;;;;15.96;70.92;99397.92;1680762;85;21049;-68
2021/05/16 05:21:15;;;;;;;12.70;11.28;;;;;;;16.01;70.49;99400.02;1663366;84;21110;-66
2021/05/16 05:23:41;;;;;;;15.93;11.35;;;;;;;16.09;70.11;99403.42;1663706;85;20991;-70
2021/05/16 05:26:08;;;;;;;13.38;10.05;;;;;;;16.18;70.14;99403.56;1643151;86;21066;-71
2021/05/16 05:28:35;;;;;;;16.02;12.05;;;;;;;16.27;70.35;99401.80;1637450;85;21026;-69
2021/05/16 05:31:03;;;;;;;14.95;11.90;;;;;;;16.34;70.43;99404.16;1655578;85;21595;-69
2021/05/16 05:33:30;;;;;;;12.25;10.95;;;;;;;16.40;70.40;99399.69;1637399;86;21066;-69
2021/05/16 05:35:56;;;;;;;12.55;11.35;;;;;;;16.47;70.26;99410.99;1662866;85;21075;-68
2021/05/16 05:38:24;;;;;;;15.10;11.97;;;;;;;16.54;70.07;99405.20;1655645;86;21606;-71
2021/05/16 05:40:51;;;;;;;15.95;14.00;;;;;;;16.58;69.84;99407.61;1638975;87;20998;-68
2021/05/16 05:43:17;;;;;;;15.15;12.53;;;;;;;16.64;69.71;99403.72;1646371;85;21030;-71
2021/05/16 05:45:44;;;;;;;14.68;13.10;;;;;;;16.73;69.58;99396.50;1646563;86;21097;-69
2021/05/16 05:48:10;;;;;;;10.95;9.93;;;;;;;16.86;69.30;99397.08;1633687;87;21142;-69
2021/05/16 05:50:37;;;;;;;12.15;11.00;;;;;;;16.97;68.85;99399.89;1634618;86;21058;-72
2021/05/16 05:53:03;;;;;;;12.03;10.80;;;;;;;17.08;68.41;99392.88;1672862;85;21010;-68
2021/05/16 05:55:31;;;;;;;12.93;11.70;;;;;;;17.17;68.06;99401.41;1655321;86;21158;-68
2021/05/16 05:57:58;;;;;;;11.88;10.68;;;;;;;17.25;67.85;99391.77;1646338;85;21098;-69
2021/05/16 06:00:28;;;;;;;11.25;10.25;;;;;;;17.32;67.48;99391.61;1672532;85;21677;-69
2021/05/16 06:02:58;;;;;;;12.18;7.87;;;;;;;17.40;67.03;99393.64;1635978;86;21176;-68
2021/05/16 06:05:26;;;;;;;9.45;7.95;;;;;;;17.48;65.94;99392.67;1672599;85;20943;-68
2021/05/16 06:07:55;;;;;;;7.78;7.05;;;;;;;17.53;65.17;99394.73;1639177;86;21584;-69
2021/05/16 06:10:23;;;;;;;8.68;7.78;;;;;;;17.60;64.72;99394.38;1645286;87;21045;-68
2021/05/16 06:12:51;;;;;;;8.30;7.60;;;;;;;17.65;64.41;99392.33;1610151;87;21101;-69
2021/05/16 06:15:22;;;;;;;7.72;7.03;;;;;;;17.73;64.05;99400.35;1645173;86;21076;-68
2021/05/16 06:17:49;;;;;;;8.55;7.70;;;;;;;17.78;62.84;99398.34;1610122;87;21034;-68
2021/05/16 06:20:16;;;;;;;8.53;7.70;;;;;;;17.85;62.56;99401.98;1647043;85;21050;-68
2021/05/16 06:22:42;;;;;;;9.53;7.58;;;;;;;17.90;62.54;99405.16;1638370;87;20963;-69
2021/05/16 06:25:11;;;;;;;11.28;9.73;;;;;;;17.94;61.88;99408.32;1636244;86;21137;-68
2021/05/16 06:27:37;;;;;;;10.68;8.65;;;;;;;17.99;61.90;99408.21;1650796;85;21077;-72
2021/05/16 06:30:06;;;;;;;8.78;7.75;;;;;;;18.05;61.62;99406.19;1652470;85;21082;-69
2021/05/16 06:32:32;;;;;;;9.68;8.60;;;;;;;18.09;61.60;99402.55;1654192;86;21053;-69
2021/05/16 06:34:59;;;;;;;7.85;7.15;;;;;;;18.16;61.58;99396.14;1645458;87;21066;-69
2021/05/16 06:37:25;;;;;;;9.38;7.00;;;;;;;18.21;61.33;99393.30;1610064;87;21792;-68
2021/05/16 06:39:51;;;;;;;8.85;6.92;;;;;;;18.30;60.99;99402.91;1647186;85;21102;-67
2021/05/16 06:42:18;;;;;;;8.03;7.22;;;;;;;18.38;61.15;99401.34;1617344;88;21111;-68
2021/05/16 06:44:45;;;;;;;8.80;7.33;;;;;;;18.44;61.37;99402.84;1638166;87;21052;-69
2021/05/16 06:47:11;;;;;;;8.90;7.30;;;;;;;18.51;61.08;99405.97;1610388;87;21078;-69
2021/05/16 06:49:38;;;;;;;7.20;6.50;;;;;;;18.56;61.04;99400.42;1651167;85;21106;-71
2021/05/16 06:52:05;;;;;;;6.97;6.28;;;;;;;18.62;60.89;99408.14;1659685;86;21586;-69
2021/05/16 06:54:33;;;;;;;6.85;6.22;;;;;;;18.69;59.89;99405.00;1672492;85;20947;-69
2021/05/16 06:57:00;;;;;;;8.50;5.47;;;;;;;18.74;59.32;99402.16;1659504;86;21015;-69
2021/05/16 06:59:28;;;;;;;7.20;5.47;;;;;;;18.78;59.07;99399.61;1672334;85;21574;-67
2021/05/16 07:01:54;;;;;;;6.08;4.72;;;;;;;18.83;58.23;99404.92;1655471;85;21793;-68
2021/05/16 07:04:21;;;;;;;4.78;4.37;;;;;;;18.87;57.92;99398.55;1645453;85;21018;-68
2021/05/16 07:06:47;;;;;;;5.87;4.78;;;;;;;18.94;58.30;99402.20;1607471;87;21012;-68
2021/05/16 07:09:15;;;;;;;6.03;5.45;;;;;;;18.97;57.86;99398.84;1636164;86;21045;-68
2021/05/16 07:11:41;;;;;;;5.20;4.70;;;;;;;19.04;57.78;99406.03;1662728;85;21527;-69
2021/05/16 07:14:07;;;;;;;5.05;4.20;;;;;;;19.09;57.24;99403.14;1645147;86;21089;-70
2021/05/16 07:16:34;;;;;;;5.58;5.03;;;;;;;19.14;56.06;99405.73;1632717;87;21130;-69
2021/05/16 07:19:02;;;;;;;4.58;4.05;;;;;;;19.18;56.20;99401.84;1645383;85;21087;-70
2021/05/16 07:21:28;;;;;;;3.72;3.42;;;;;;;19.21;55.85;99409.39;1650935;86;21165;-70
2021/05/16 07:23:55;;;;;;;6.33;4.08;;;;;;;19.24;55.57;99404.10;1641519;87;21073;-68
2021/05/16 07:26:21;;;;;;;5.85;5.00;;;;;;;19.31;55.62;99412.66;1660285;86;21176;-68
2021/05/16 07:28:48;;;;;;;4.25;3.95;;;;;;;19.37;55.66;99406.50;1620399;86;22426;-68
2021/05/16 07:31:15;;;;;;;4.58;4.15;;;;;;;19.42;54.94;99405.00;1662213;85;21653;-70
2021/05/16 07:33:41;;;;;;;4.87;4.47;;;;;;;19.45;54.33;99403.84;1654595;86;21026;-70
2021/05/16 07:36:08;;;;;;;6.10;4.58;;;;;;;19.50;54.76;99416.53;1687842;85;21074;-69
2021/05/16 07:38:36;;;;;;;5.85;5.15;;;;;;;19.53;54.97;99416.70;1656703;86;21662;-70
2021/05/16 07:41:03;;;;;;;5.08;4.58;;;;;;;19.61;55.07;99415.69;1651402;86;21026;-70
2021/05/16 07:43:30;;;;;;;5.10;4.60;;;;;;;19.68;54.61;99422.84;1619283;87;21081;-67
2021/05/16 07:45:58;;;;;;;5.58;5.05;;;;;;;19.76;54.29;99430.27;1673508;84;21123;-68
2021/05/16 07:48:28;;;;;;;5.92;5.40;;;;;;;19.85;54.76;99425.64;1629785;87;21094;-69
2021/05/16 07:50:53;;;;;;;6.72;5.70;;;;;;;19.93;54.81;99428.94;1659854;86;21090;-69
2021/05/16 07:53:20;;;;;;;5.67;5.10;;;;;;;19.96;54.97;99422.28;1629773;88;20974;-70
2021/05/16 07:55:46;;;;;;;5.25;4.75;;;;;;;20.03;55.12;99419.09;1647718;85;21527;-70
2021/05/16 07:58:13;;;;;;;7.08;4.78;;;;;;;20.10;54.71;99419.96;1687339;84;21610;-69
2021/05/16 08:00:41;;;;;;;5.30;4.62;;;;;;;20.15;54.75;99417.08;1648051;85;21064;-71
2021/05/16 08:03:08;;;;;;;5.35;3.98;;;;;;;20.22;54.12;99424.25;1673319;85;21042;-73
2021/05/16 08:05:34;;;;;;;4.28;3.87;;;;;;;20.29;54.19;99421.83;1676961;85;21601;-70
2021/05/16 08:08:01;;;;;;;5.28;4.45;;;;;;;20.37;53.63;99424.63;1663103;85;21086;-73
2021/05/16 08:10:29;;;;;;;6.83;4.92;;;;;;;20.42;52.73;99418.20;1601475;86;21126;-71
2021/05/16 08:12:56;;;;;;;3.80;3.40;;;;;;;20.49;52.70;99413.03;1677708;85;21117;-71
2021/05/16 08:15:24;;;;;;;2.87;2.67;;;;;;;20.57;52.24;99409.52;1641388;86;21062;-73
2021/05/16 08:17:52;;;;;;;5.15;3.60;;;;;;;20.66;51.08;99414.97;1668187;85;20978;-69
2021/05/16 08:20:18;;;;;;;2.75;2.30;;;;;;;20.68;50.45;99414.06;1611906;86;21054;-69
2021/05/16 08:22:45;;;;;;;3.47;3.17;;;;;;;20.72;50.65;99408.22;1646032;86;21140;-70
2021/05/16 08:25:13;;;;;;;3.90;2.80;;;;;;;20.79;50.49;99397.02;1638775;86;21130;-69
2021/05/16 08:27:40;;;;;;;5.58;4.25;;;;;;;20.86;50.07;99401.41;1659543;85;21093;-71
2021/05/16 08:30:09;;;;;;;7.95;2.75;;;;;;;20.97;50.42;99407.91;1657934;85;21013;-67
2021/05/16 08:32:35;;;;;;;4.55;3.17;;;;;;;21.06;49.90;99408.13;1684015;85;21013;-70
2021/05/16 08:35:03;;;;;;;3.75;2.65;;;;;;;21.13;49.25;99398.91;1645161;85;21045;-68
2021/05/16 08:37:30;;;;;;;3.08;2.58;;;;;;;21.20;49.37;99383.34;1685612;85;21032;-72
2021/05/16 08:39:57;;;;;;;3.17;2.55;;;;;;;21.32;49.54;99402.61;1666760;84;21009;-69
2021/05/16 08:42:23;;;;;;;5.37;3.10;;;;;;;21.45;48.10;99408.99;1628528;86;21069;-72
2021/05/16 08:44:50;;;;;;;3.83;3.10;;;;;;;21.61;47.22;99403.22;1662095;85;21005;-70
2021/05/16 08:47:17;;;;;;;5.65;2.75;;;;;;;21.70;46.40;99403.97;1656556;86;21079;-69
2021/05/16 08:49:44;;;;;;;2.83;1.92;;;;;;;21.77;45.14;99400.72;1687837;85;21049;-70
2021/05/16 08:52:12;;;;;;;4.28;2.20;;;;;;;21.76;44.85;99399.92;1635117;86;21146;-69
2021/05/16 08:54:38;;;;;;;3.17;2.15;;;;;;;21.79;44.22;99390.23;1620483;83;21573;-69
2021/05/16 08:57:05;;;;;;;2.98;2.05;;;;;;;21.80;44.40;99392.64;1643338;86;21011;-72
2021/05/16 08:59:31;;;;;;;2.72;1.70;;;;;;;21.86;44.61;99389.95;1655675;85;21611;-74
2021/05/16 09:01:58;;;;;;;4.37;2.60;;;;;;;21.98;44.25;99389.25;1651480;86;21003;-70
2021/05/16 09:04:36;;;;;;;1.90;1.77;;;;;;;22.04;43.26;99389.30;1669444;85;21330;-69
2021/05/16 09:07:04;;;;;;;2.05;1.95;;;;;;;22.05;41.22;99379.95;1652651;86;21077;-68
2021/05/16 09:09:34;;;;;;;1.30;1.20;;;;;;;22.03;41.05;99376.17;1669491;85;21023;-71
2021/05/16 09:12:04;;;;;;;1.75;1.22;;;;;;;22.10;41.64;99370.97;1641559;87;21608;-68
2021/05/16 09:14:50;;;;;;;3.62;2.35;;;;;;;22.24;42.84;99376.75;1647548;86;21125;-68
2021/05/16 09:17:35;;;;;;;7.03;2.40;;;;;;;22.39;42.97;99366.55;1678817;85;21005;-68
2021/05/16 09:20:10;;;;;;;20.43;3.83;;;;;;;22.54;42.71;99360.45;1652119;86;21134;-73
2021/05/16 09:22:43;;;;;;;3.65;2.08;;;;;;;22.64;42.24;99361.97;1639999;86;21593;-68
2021/05/16 09:25:26;;;;;;;2.45;1.52;;;;;;;22.66;41.70;99356.94;1641237;86;21203;-68
2021/05/16 09:27:55;;;;;;;2.45;2.25;;;;;;;22.67;41.36;99353.87;1637859;87;21041;-69
2021/05/16 09:30:24;;;;;;;3.00;2.15;;;;;;;22.75;40.55;99359.05;1645573;86;21126;-70
2021/05/16 09:33:11;;;;;;;4.33;2.60;;;;;;;22.79;40.50;99354.48;1649126;85;20950;-69
2021/05/16 09:35:44;;;;;;;1.75;1.62;;;;;;;22.86;40.83;99349.26;1639350;85;21561;-73
2021/05/16 09:38:21;;;;;;;4.28;2.42;;;;;;;22.95;41.06;99347.22;1628570;86;21038;-69
2021/05/16 09:40:52;;;;;;;2.33;2.10;;;;;;;23.03;41.70;99350.42;1657763;85;21030;-69
2021/05/16 09:43:24;;;;;;;2.35;1.57;;;;;;;23.17;42.19;99345.98;1645609;86;21061;-71
2021/05/16 09:46:03;;;;;;;4.17;1.77;;;;;;;23.28;42.01;99349.89;1672020;85;21041;-70
2021/05/16 09:48:44;;;;;;;3.92;1.85;;;;;;;23.37;41.25;99345.89;1652406;86;21121;-72
2021/05/16 09:51:23;;;;;;;2.33;2.10;;;;;;;23.42;40.69;99347.60;1631557;87;21190;-69
2021/05/16 09:54:07;;;;;;;3.42;1.87;;;;;;;23.44;39.92;99354.40;1645168;87;21049;-72
2021/05/16 09:56:39;;;;;;;2.08;1.65;;;;;;;23.41;39.54;99350.11;1609921;87;21082;-73
2021/05/16 09:59:12;;;;;;;2.87;1.42;;;;;;;23.40;39.81;99349.31;1645389;87;21549;-75
2021/05/16 10:01:38;;;;;;;2.33;2.12;;;;;;;23.47;39.58;99348.78;1647610;86;21014;-75
2021/05/16 10:04:08;;;;;;;2.15;1.70;;;;;;;23.53;39.37;99349.35;1664444;85;21073;-82
2021/05/16 10:06:36;;;;;;;2.35;1.55;;;;;;;23.62;39.63;99352.20;1632774;87;20970;-73
2021/05/16 10:09:05;;;;;;;1.57;1.47;;;;;;;23.75;39.63;99357.11;1635210;86;21127;-79
2021/05/16 10:11:38;;;;;;;3.80;2.05;;;;;;;23.92;40.07;99356.06;1654746;85;21663;-72
2021/05/16 10:14:17;;;;;;;2.35;1.37;;;;;;;24.02;38.95;99354.22;1631989;87;20954;-69
2021/05/16 10:16:47;;;;;;;2.77;1.42;;;;;;;24.09;38.51;99345.59;1645771;85;20994;-69
2021/05/16 10:19:18;;;;;;;1.77;1.67;;;;;;;24.12;38.54;99339.99;1632777;87;21116;-69
2021/05/16 10:21:45;;;;;;;6.30;1.72;;;;;;;24.26;38.87;99328.87;1626327;85;21708;-71
2021/05/16 10:24:15;;;;;;;4.50;1.50;;;;;;;24.37;37.94;99326.97;1710783;83;20967;-70
2021/05/16 10:26:44;;;;;;;2.90;1.40;;;;;;;24.42;37.27;99333.02;1671718;85;21018;-74
2021/05/16 10:29:17;;;;;;;4.05;1.07;;;;;;;24.44;37.13;99317.56;1686933;83;21005;-70
2021/05/16 10:31:50;;;;;;;;;;;;;;;24.55;37.38;99315.91;1662780;85;21057;-71
2021/05/16 10:34:35;;;;;;;2.45;1.37;;;;;;;24.68;37.33;99314.69;1657382;85;22233;-71
2021/05/16 10:37:03;;;;;;;1.55;1.27;;;;;;;24.79;37.42;99308.90;1670021;84;21051;-72
2021/05/16 10:39:48;;;;;;;1.98;1.40;;;;;;;24.91;36.75;99310.78;1645018;85;21010;-69
2021/05/16 10:42:23;;;;;;;1.32;1.20;;;;;;;25.00;37.02;99312.78;1685421;85;20994;-71
2021/05/16 10:45:19;;;;;;;3.35;1.75;;;;;;;25.09;35.61;99317.53;1688169;85;21569;-72
2021/05/16 10:47:50;;;;;;;7.05;2.77;;;;;;;25.11;35.92;99316.04;1661553;85;21140;-69
2021/05/16 10:50:28;;;;;;;1.72;1.62;;;;;;;25.18;35.24;99308.52;1659971;85;20986;-72
2021/05/16 10:53:08;;;;;;;1.40;1.20;;;;;;;25.20;35.96;99306.22;1660086;86;21036;-70
2021/05/16 10:55:51;;;;;;;1.72;1.50;;;;;;;25.33;35.63;99313.79;1663895;85;21009;-72
2021/05/16 10:58:39;;;;;;;1.60;1.37;;;;;;;25.36;34.38;99304.83;1660662;85;21022;-71
2021/05/16 11:01:17;;;;;;;1.55;1.10;;;;;;;25.25;35.07;99299.06;1660297;85;20942;-73
2021/05/16 11:03:56;;;;;;;2.20;2.02;;;;;;;25.21;35.12;99290.50;1664348;85;21089;-70
2021/05/16 11:06:40;;;;;;;2.00;1.62;;;;;;;25.32;35.41;99288.81;1660187;85;21049;-72
2021/05/16 11:09:12;;;;;;;4.90;2.27;;;;;;;25.45;34.58;99283.41;1654985;86;20973;-68
2021/05/16 11:11:52;;;;;;;1.20;1.10;;;;;;;25.48;34.18;99282.68;1660337;86;21068;-74
2021/05/16 11:14:35;;;;;;;1.77;1.20;;;;;;;25.41;34.18;99272.32;1662680;85;21600;-76
2021/05/16 11:17:06;;;;;;;5.75;1.25;;;;;;;25.44;34.47;99273.55;1685441;85;21103;-74
2021/05/16 11:19:35;;;;;;;1.40;1.27;;;;;;;25.43;34.09;99266.44;1686941;85;21620;-74
2021/05/16 11:22:14;;;;;;;1.45;1.00;;;;;;;25.36;33.63;99261.58;1685223;84;20961;-73
2021/05/16 11:24:46;;;;;;;1.57;1.27;;;;;;;25.27;34.23;99254.67;1645186;85;21036;-72
2021/05/16 11:27:25;;;;;;;2.22;1.67;;;;;;;25.36;34.25;99260.78;1660319;86;21636;-71
2021/05/16 11:29:56;;;;;;;1.80;1.20;;;;;;;25.45;34.32;99253.92;1660696;85;20969;-75
2021/05/16 11:32:31;;;;;;;2.37;1.30;;;;;;;25.59;34.37;99254.27;1660466;85;21029;-76
2021/05/16 11:35:16;;;;;;;0.78;0.78;;;;;;;25.71;33.60;99256.68;1674048;85;21001;-72